createdAt,value
2023-03-15T00:00:55.314Z,6.15
2023-03-15T00:03:22.043Z,6.22
2023-03-15T00:05:49.099Z,5.10
2023-03-15T00:08:15.668Z,4.15
2023-03-15T00:10:42.803Z,6.53
2023-03-15T00:13:09.547Z,4.93
2023-03-15T00:15:36.522Z,5.65
2023-03-15T00:18:03.252Z,5.90
2023-03-15T00:20:29.923Z,6.13
2023-03-15T00:22:56.567Z,5.18
2023-03-15T00:25:22.958Z,8.30
2023-03-15T00:27:49.275Z,5.97
2023-03-15T00:30:15.771Z,4.45
2023-03-15T00:32:42.229Z,7.30
2023-03-15T00:35:10.075Z,5.28
2023-03-15T00:37:37.597Z,6.38
2023-03-15T00:40:06.318Z,7.22
2023-03-15T00:42:34.111Z,5.43
2023-03-15T00:45:00.539Z,5.40
2023-03-15T00:47:27.107Z,4.40
2023-03-15T00:49:53.646Z,5.22
2023-03-15T00:52:20.046Z,6.60
2023-03-15T00:54:53.398Z,4.57
2023-03-15T00:57:20.202Z,5.35
2023-03-15T00:59:46.590Z,5.32
2023-03-15T01:02:13.436Z,4.57
2023-03-15T01:04:39.769Z,5.45
2023-03-15T01:07:06.336Z,4.75
2023-03-15T01:09:32.741Z,5.82
2023-03-15T01:11:59.308Z,4.57
2023-03-15T01:14:25.658Z,4.63
2023-03-15T01:16:52.092Z,4.63
2023-03-15T01:19:18.668Z,3.03
2023-03-15T01:21:47.711Z,5.07
2023-03-15T01:24:15.108Z,3.28
2023-03-15T01:26:41.581Z,3.05
2023-03-15T01:29:08.145Z,4.57
2023-03-15T01:31:34.563Z,4.68
2023-03-15T01:34:01.133Z,3.42
2023-03-15T01:36:27.557Z,3.97
2023-03-15T01:38:55.204Z,6.00
2023-03-15T01:41:21.652Z,2.97
2023-03-15T01:43:48.247Z,3.53
2023-03-15T01:46:17.656Z,3.97
2023-03-15T01:48:47.679Z,2.85
2023-03-15T01:51:21.644Z,2.92
2023-03-15T01:53:56.528Z,2.70
2023-03-15T01:56:23.424Z,2.78
2023-03-15T01:58:51.348Z,2.75
2023-03-15T02:01:18.653Z,3.50
2023-03-15T02:03:46.836Z,2.65
2023-03-15T02:06:18.063Z,1.95
2023-03-15T02:08:52.730Z,2.92
2023-03-15T02:11:20.316Z,1.77
2023-03-15T02:13:48.178Z,2.55
2023-03-15T02:16:14.584Z,2.63
2023-03-15T02:18:40.892Z,4.45
2023-03-15T02:21:19.637Z,2.92
2023-03-15T02:23:48.207Z,2.85
2023-03-15T02:26:20.750Z,3.25
2023-03-15T02:28:47.638Z,2.45
2023-03-15T02:31:14.649Z,2.20
2023-03-15T02:33:44.335Z,2.95
2023-03-15T02:36:32.067Z,3.72
2023-03-15T02:38:58.481Z,2.72
2023-03-15T02:41:28.190Z,2.53
2023-03-15T02:43:56.288Z,2.33
2023-03-15T02:46:23.082Z,3.05
2023-03-15T02:48:50.040Z,2.72
2023-03-15T02:51:17.033Z,2.30
2023-03-15T02:53:43.497Z,1.85
2023-03-15T02:56:09.817Z,2.53
2023-03-15T02:58:36.105Z,2.30
2023-03-15T03:01:02.499Z,2.13
2023-03-15T03:03:29.031Z,1.90
2023-03-15T03:05:55.301Z,2.95
2023-03-15T03:08:21.671Z,2.92
2023-03-15T03:10:47.958Z,2.67
2023-03-15T03:13:15.072Z,2.40
2023-03-15T03:15:45.611Z,2.28
2023-03-15T03:18:12.591Z,1.90
2023-03-15T03:20:39.141Z,1.70
2023-03-15T03:23:06.145Z,2.42
2023-03-15T03:25:33.274Z,2.33
2023-03-15T03:27:59.583Z,1.67
2023-03-15T03:30:25.996Z,2.35
2023-03-15T03:32:52.366Z,1.92
2023-03-15T03:35:18.786Z,3.17
2023-03-15T03:37:45.308Z,2.00
2023-03-15T03:40:12.185Z,1.95
2023-03-15T03:42:38.484Z,1.70
2023-03-15T03:45:05.081Z,1.73
2023-03-15T03:47:31.510Z,2.30
2023-03-15T03:49:57.860Z,1.65
2023-03-15T03:52:24.157Z,1.88
2023-03-15T03:54:50.871Z,2.13
2023-03-15T03:57:17.129Z,2.80
2023-03-15T03:59:43.684Z,1.73
2023-03-15T04:02:10.087Z,2.97
2023-03-15T04:04:36.587Z,2.55
2023-03-15T04:07:03.027Z,1.35
2023-03-15T04:09:29.334Z,1.65
2023-03-15T04:11:55.718Z,1.55
2023-03-15T04:14:22.083Z,1.75
2023-03-15T04:16:48.426Z,2.08
2023-03-15T04:19:14.787Z,4.47
2023-03-15T04:21:47.492Z,1.58
2023-03-15T04:24:14.495Z,2.70
2023-03-15T04:26:41.929Z,1.67
2023-03-15T04:29:08.947Z,1.80
2023-03-15T04:31:37.822Z,1.27
2023-03-15T04:34:04.838Z,1.95
2023-03-15T04:36:31.189Z,1.52
2023-03-15T04:39:05.788Z,1.80
2023-03-15T04:41:32.159Z,2.15
2023-03-15T04:43:58.436Z,1.90
2023-03-15T04:46:25.187Z,2.17
2023-03-15T04:48:51.639Z,1.92
2023-03-15T04:51:18.063Z,1.85
2023-03-15T04:53:44.397Z,1.83
2023-03-15T04:56:10.748Z,2.67
2023-03-15T04:58:37.082Z,2.15
2023-03-15T05:01:03.475Z,2.45
2023-03-15T05:03:29.774Z,2.40
2023-03-15T05:05:56.178Z,2.35
2023-03-15T05:08:22.471Z,2.72
2023-03-15T05:10:48.806Z,2.33
2023-03-15T05:13:15.159Z,2.80
2023-03-15T05:15:41.528Z,2.45
2023-03-15T05:18:07.837Z,2.55
2023-03-15T05:20:34.129Z,2.20
2023-03-15T05:23:01.333Z,2.20
2023-03-15T05:25:27.666Z,3.45
2023-03-15T05:27:55.012Z,3.53
2023-03-15T05:30:21.641Z,2.78
2023-03-15T05:32:48.021Z,2.50
2023-03-15T05:35:14.601Z,3.78
2023-03-15T05:37:42.463Z,2.72
2023-03-15T05:40:10.148Z,3.17
2023-03-15T05:42:36.675Z,3.35
2023-03-15T05:45:03.202Z,3.42
2023-03-15T05:47:29.616Z,3.28
2023-03-15T05:49:56.099Z,4.30
2023-03-15T05:52:22.582Z,2.58
2023-03-15T05:54:48.994Z,3.33
2023-03-15T05:57:15.361Z,6.90
2023-03-15T05:59:41.822Z,2.88
2023-03-15T06:02:08.507Z,3.28
2023-03-15T06:04:36.522Z,3.50
2023-03-15T06:07:03.496Z,5.60
2023-03-15T06:09:30.043Z,4.28
2023-03-15T06:11:56.612Z,3.30
2023-03-15T06:14:22.990Z,3.88
2023-03-15T06:16:50.869Z,7.00
2023-03-15T06:19:17.193Z,3.38
2023-03-15T06:21:44.053Z,3.85
2023-03-15T06:24:10.546Z,2.97
2023-03-15T06:26:36.929Z,3.95
2023-03-15T06:29:03.492Z,3.30
2023-03-15T06:31:29.795Z,3.17
2023-03-15T06:33:56.096Z,4.90
2023-03-15T06:36:23.606Z,3.88
2023-03-15T06:38:50.089Z,5.07
2023-03-15T06:41:16.683Z,3.40
2023-03-15T06:43:43.052Z,4.38
2023-03-15T06:46:09.492Z,3.88
2023-03-15T06:48:35.862Z,4.97
2023-03-15T06:51:04.086Z,5.57
2023-03-15T06:53:30.933Z,4.28
2023-03-15T06:55:57.237Z,3.95
2023-03-15T06:58:23.692Z,3.70
2023-03-15T07:00:50.518Z,3.08
2023-03-15T07:03:16.916Z,3.33
2023-03-15T07:05:43.264Z,3.10
2023-03-15T07:08:09.594Z,3.40
2023-03-15T07:10:36.568Z,3.47
2023-03-15T07:13:04.449Z,2.75
2023-03-15T07:15:31.107Z,3.08
2023-03-15T07:17:57.552Z,4.75
2023-03-15T07:20:23.871Z,4.68
2023-03-15T07:22:50.272Z,3.33
2023-03-15T07:25:23.700Z,3.08
2023-03-15T07:27:51.028Z,2.45
2023-03-15T07:30:17.671Z,4.38
2023-03-15T07:32:44.530Z,3.85
2023-03-15T07:35:13.427Z,3.25
2023-03-15T07:37:44.388Z,2.85
2023-03-15T07:40:12.534Z,3.97
2023-03-15T07:42:39.480Z,5.60
2023-03-15T07:45:06.411Z,3.03
2023-03-15T07:47:32.901Z,2.90
2023-03-15T07:49:59.267Z,7.15
2023-03-15T07:52:25.662Z,4.95
2023-03-15T07:54:52.004Z,3.00
2023-03-15T07:57:18.781Z,3.28
2023-03-15T07:59:45.208Z,4.63
2023-03-15T08:02:22.450Z,3.38
2023-03-15T08:04:50.980Z,5.38
2023-03-15T08:07:17.516Z,5.72
2023-03-15T08:09:44.267Z,2.72
2023-03-15T08:12:10.730Z,5.35
2023-03-15T08:14:37.667Z,4.13
2023-03-15T08:17:04.098Z,3.53
2023-03-15T08:19:30.495Z,4.55
2023-03-15T08:21:57.067Z,2.88
2023-03-15T08:24:23.479Z,3.50
2023-03-15T08:26:51.315Z,3.50
2023-03-15T08:29:17.677Z,3.63
2023-03-15T08:31:44.067Z,3.55
2023-03-15T08:34:12.020Z,3.05
2023-03-15T08:36:38.433Z,2.75
2023-03-15T08:39:05.565Z,3.08
2023-03-15T08:41:32.042Z,3.42
2023-03-15T08:43:58.399Z,4.50
2023-03-15T08:46:25.097Z,4.80
2023-03-15T08:48:51.525Z,3.78
2023-03-15T08:51:17.979Z,3.47
2023-03-15T08:53:44.402Z,4.70
2023-03-15T08:56:10.971Z,3.20
2023-03-15T08:58:37.529Z,3.50
2023-03-15T09:01:04.914Z,3.00
2023-03-15T09:03:32.956Z,5.18
2023-03-15T09:05:59.388Z,3.22
2023-03-15T09:08:26.424Z,4.13
2023-03-15T09:10:56.349Z,2.97
2023-03-15T09:13:23.376Z,4.18
2023-03-15T09:15:50.885Z,3.20
2023-03-15T09:18:17.744Z,4.03
2023-03-15T09:20:44.524Z,4.13
2023-03-15T09:23:11.039Z,2.92
2023-03-15T09:25:37.599Z,3.40
2023-03-15T09:28:04.566Z,3.67
2023-03-15T09:30:31.069Z,4.07
2023-03-15T09:32:57.588Z,3.72
2023-03-15T09:35:24.117Z,4.22
2023-03-15T09:37:51.009Z,3.53
2023-03-15T09:40:21.077Z,3.50
2023-03-15T09:43:06.130Z,3.33
2023-03-15T09:45:42.451Z,2.75
2023-03-15T09:48:11.870Z,4.10
2023-03-15T09:50:45.777Z,5.28
2023-03-15T09:53:19.564Z,2.78
2023-03-15T09:55:46.479Z,3.13
2023-03-15T09:58:17.874Z,3.88
2023-03-15T10:00:46.345Z,5.00
2023-03-15T10:03:16.604Z,2.88
2023-03-15T10:05:49.071Z,2.75
2023-03-15T10:08:18.951Z,3.83
2023-03-15T10:10:59.874Z,3.40
2023-03-15T10:13:29.237Z,3.95
2023-03-15T10:16:22.874Z,4.88
2023-03-15T10:19:02.071Z,2.95
2023-03-15T10:21:33.912Z,3.03
2023-03-15T10:24:02.044Z,2.70
2023-03-15T10:26:32.876Z,2.72
2023-03-15T10:29:01.041Z,2.70
2023-03-15T10:31:41.440Z,2.75
2023-03-15T10:34:11.705Z,3.25
2023-03-15T10:36:44.178Z,1.42
2023-03-15T10:39:11.713Z,3.33
2023-03-15T10:41:39.532Z,3.22
2023-03-15T10:44:07.721Z,4.05
2023-03-15T10:46:35.455Z,3.50
2023-03-15T10:49:12.498Z,3.00
2023-03-15T10:51:41.672Z,3.63
2023-03-15T10:54:11.792Z,3.78
2023-03-15T10:56:43.752Z,3.17
2023-03-15T10:59:18.384Z,2.50
2023-03-15T11:01:48.219Z,3.63
2023-03-15T11:04:27.010Z,4.50
2023-03-15T11:06:56.465Z,4.70
2023-03-15T11:09:23.883Z,3.85
2023-03-15T11:11:50.228Z,3.63
2023-03-15T11:14:17.645Z,3.83
2023-03-15T11:16:46.514Z,3.13
2023-03-15T11:19:15.222Z,2.05
2023-03-15T11:21:42.294Z,2.45
2023-03-15T11:24:13.502Z,2.70
2023-03-15T11:26:41.207Z,3.95
2023-03-15T11:29:15.950Z,2.53
2023-03-15T11:31:42.342Z,2.72
2023-03-15T11:34:27.518Z,1.60
2023-03-15T11:37:07.672Z,2.85
2023-03-15T11:39:45.342Z,3.67
2023-03-15T11:42:18.890Z,2.13
2023-03-15T11:44:46.932Z,2.55
2023-03-15T11:47:19.299Z,1.80
2023-03-15T11:49:53.399Z,5.47
2023-03-15T11:52:21.132Z,5.72
2023-03-15T11:54:47.717Z,5.28
2023-03-15T11:57:29.643Z,2.72
2023-03-15T11:59:56.993Z,4.22
2023-03-15T12:02:23.415Z,3.65
2023-03-15T12:04:51.031Z,2.05
2023-03-15T12:07:17.379Z,4.78
2023-03-15T12:10:02.506Z,2.42
2023-03-15T12:12:28.914Z,2.35
2023-03-15T12:15:25.025Z,5.90
2023-03-15T12:17:51.376Z,3.33
2023-03-15T12:20:38.019Z,6.15
2023-03-15T12:23:04.355Z,3.42
2023-03-15T12:25:54.944Z,4.13
2023-03-15T12:28:23.665Z,2.45
2023-03-15T12:30:54.845Z,6.13
2023-03-15T12:33:21.916Z,3.67
2023-03-15T12:35:49.055Z,2.88
2023-03-15T12:38:17.808Z,2.20
2023-03-15T12:41:06.501Z,2.90
2023-03-15T12:43:37.032Z,4.93
2023-03-15T12:46:03.609Z,5.70
2023-03-15T12:48:30.756Z,3.28
2023-03-15T12:51:01.474Z,4.30
2023-03-15T12:53:31.015Z,2.80
2023-03-15T12:56:29.338Z,2.55
2023-03-15T12:58:59.839Z,4.10
2023-03-15T13:01:26.654Z,4.38
2023-03-15T13:03:58.435Z,6.30
2023-03-15T13:06:37.429Z,2.00
2023-03-15T13:09:04.700Z,7.50
2023-03-15T13:11:39.044Z,2.97
2023-03-15T13:14:05.586Z,2.00
2023-03-15T13:16:38.194Z,4.53
2023-03-15T13:19:17.819Z,3.35
2023-03-15T13:22:04.611Z,2.55
2023-03-15T13:27:02.230Z,4.07
2023-03-15T13:29:32.875Z,2.88
2023-03-15T13:32:00.977Z,3.10
2023-03-15T13:34:30.938Z,2.63
2023-03-15T13:36:58.946Z,3.92
2023-03-15T13:39:26.721Z,1.83
2023-03-15T13:42:03.784Z,2.40
2023-03-15T13:44:31.292Z,3.78
2023-03-15T13:46:58.227Z,3.22
2023-03-15T13:49:24.904Z,2.60
2023-03-15T13:51:52.578Z,3.13
2023-03-15T13:54:20.943Z,3.20
2023-03-15T13:56:55.418Z,4.43
2023-03-15T13:59:23.747Z,1.67
2023-03-15T14:01:53.966Z,2.55
2023-03-15T14:04:21.088Z,2.90
2023-03-15T14:06:48.137Z,2.25
2023-03-15T14:09:22.194Z,5.78
2023-03-15T14:12:02.526Z,2.78
2023-03-15T14:14:29.891Z,4.38
2023-03-15T14:17:05.368Z,3.38
2023-03-15T14:21:59.996Z,1.42
2023-03-15T14:24:29.074Z,2.75
2023-03-15T14:27:00.389Z,2.28
2023-03-15T14:29:31.135Z,3.63
2023-03-15T14:32:05.364Z,2.03
2023-03-15T14:34:36.684Z,1.15
2023-03-15T14:37:06.795Z,2.67
2023-03-15T14:39:40.461Z,1.83
2023-03-15T14:42:07.456Z,2.75
2023-03-15T14:44:33.897Z,1.17
2023-03-15T14:47:00.515Z,1.55
2023-03-15T14:49:27.605Z,2.97
2023-03-15T14:51:57.092Z,3.10
2023-03-15T14:54:26.692Z,3.88
2023-03-15T14:56:54.002Z,1.13
2023-03-15T14:59:20.583Z,2.65
2023-03-15T15:01:49.784Z,2.55
2023-03-15T15:04:17.023Z,3.78
2023-03-15T15:06:51.510Z,3.40
2023-03-15T15:09:25.480Z,3.42
2023-03-15T15:11:52.841Z,2.78
2023-03-15T15:14:19.679Z,2.88
2023-03-15T15:16:46.158Z,4.38
2023-03-15T15:19:12.678Z,7.30
2023-03-15T15:21:39.653Z,2.05
2023-03-15T15:24:11.921Z,2.38
2023-03-15T15:26:38.305Z,4.95
2023-03-15T15:29:04.614Z,3.28
2023-03-15T15:31:34.240Z,1.75
2023-03-15T15:34:01.802Z,3.95
2023-03-15T15:36:35.944Z,2.00
2023-03-15T15:39:06.468Z,2.20
2023-03-15T15:41:34.652Z,1.17
2023-03-15T15:44:01.285Z,2.75
2023-03-15T15:46:27.788Z,6.43
2023-03-15T15:48:54.547Z,3.13
2023-03-15T15:51:21.225Z,1.98
2023-03-15T15:53:47.770Z,3.25
2023-03-15T15:56:14.344Z,3.28
2023-03-15T15:58:41.640Z,2.42
2023-03-15T16:01:10.245Z,2.80
2023-03-15T16:03:37.208Z,4.70
2023-03-15T16:06:03.935Z,3.72
2023-03-15T16:08:31.575Z,3.40
2023-03-15T16:10:57.977Z,2.78
2023-03-15T16:13:24.304Z,5.45
2023-03-15T16:15:50.711Z,5.40
2023-03-15T16:18:17.052Z,6.07
2023-03-15T16:20:43.561Z,4.18
2023-03-15T16:23:15.305Z,7.03
2023-03-15T16:25:41.852Z,6.80
2023-03-15T16:28:09.716Z,6.53
2023-03-15T16:30:36.081Z,6.65
2023-03-15T16:33:02.648Z,6.57
2023-03-15T16:35:34.035Z,7.55
2023-03-15T16:38:01.327Z,5.20
2023-03-15T16:40:29.216Z,5.28
2023-03-15T16:42:55.890Z,7.30
2023-03-15T16:45:22.722Z,3.40
2023-03-15T16:47:49.392Z,5.85
2023-03-15T16:50:16.452Z,4.22
2023-03-15T16:52:43.992Z,6.03
2023-03-15T16:55:12.892Z,4.88
2023-03-15T16:57:39.793Z,4.72
2023-03-15T17:00:11.957Z,5.55
2023-03-15T17:02:39.481Z,4.88
2023-03-15T17:05:05.847Z,4.30
2023-03-15T17:07:33.765Z,5.57
2023-03-15T17:10:03.137Z,7.20
2023-03-15T17:12:29.834Z,4.32
2023-03-15T17:14:57.743Z,6.07
2023-03-15T17:17:25.568Z,5.88
2023-03-15T17:19:52.688Z,4.10
2023-03-15T17:22:19.267Z,5.70
2023-03-15T17:24:46.632Z,5.93
2023-03-15T17:27:19.411Z,6.50
2023-03-15T17:29:45.740Z,5.57
2023-03-15T17:32:13.003Z,4.05
2023-03-15T17:34:39.494Z,4.80
2023-03-15T17:37:06.316Z,5.90
2023-03-15T17:39:33.701Z,4.72
2023-03-15T17:42:00.407Z,6.03
2023-03-15T17:44:26.930Z,5.35
2023-03-15T17:46:53.550Z,5.57
2023-03-15T17:49:20.182Z,5.43
2023-03-15T17:51:46.911Z,7.05
2023-03-15T17:54:14.436Z,5.28
2023-03-15T17:56:40.935Z,7.78
2023-03-15T17:59:09.277Z,5.00
2023-03-15T18:01:36.349Z,7.60
2023-03-15T18:04:03.503Z,6.88
2023-03-15T18:06:30.299Z,7.05
2023-03-15T18:08:57.505Z,5.85
2023-03-15T18:11:29.312Z,7.63
2023-03-15T18:13:55.821Z,4.72
2023-03-15T18:16:23.062Z,7.55
2023-03-15T18:18:49.710Z,8.65
2023-03-15T18:21:18.415Z,6.22
2023-03-15T18:23:44.898Z,6.97
2023-03-15T18:26:12.018Z,6.30
2023-03-15T18:28:39.353Z,7.72
2023-03-15T18:31:19.058Z,7.68
2023-03-15T18:33:45.993Z,7.05
2023-03-15T18:36:12.495Z,9.65
2023-03-15T18:38:39.689Z,6.85
2023-03-15T18:41:11.814Z,10.55
2023-03-15T18:43:38.657Z,5.68
2023-03-15T18:46:05.017Z,6.53
2023-03-15T18:48:40.586Z,4.32
2023-03-15T18:51:09.543Z,5.38
2023-03-15T18:53:35.979Z,8.88
2023-03-15T18:56:02.389Z,7.35
2023-03-15T18:58:28.848Z,6.32
2023-03-15T19:00:55.276Z,11.15
2023-03-15T19:03:21.866Z,4.53
2023-03-15T19:05:48.264Z,6.88
2023-03-15T19:08:14.625Z,8.93
2023-03-15T19:10:42.423Z,7.38
2023-03-15T19:13:08.735Z,8.25
2023-03-15T19:15:35.091Z,8.20
2023-03-15T19:18:01.966Z,6.32
2023-03-15T19:20:28.467Z,4.70
2023-03-15T19:22:54.936Z,5.40
2023-03-15T19:25:21.409Z,6.93
2023-03-15T19:27:48.758Z,5.88
2023-03-15T19:30:18.245Z,9.30
2023-03-15T19:32:47.727Z,9.15
2023-03-15T19:35:14.489Z,5.57
2023-03-15T19:37:42.513Z,5.80
2023-03-15T19:40:09.595Z,7.95
2023-03-15T19:42:36.608Z,7.55
2023-03-15T19:45:03.559Z,6.78
2023-03-15T19:47:29.976Z,8.38
2023-03-15T19:49:56.497Z,7.43
2023-03-15T19:52:22.929Z,7.88
2023-03-15T19:54:50.082Z,6.85
2023-03-15T19:57:16.440Z,6.97
2023-03-15T19:59:43.012Z,6.50
2023-03-15T20:02:12.869Z,7.40
2023-03-15T20:04:39.430Z,5.10
2023-03-15T20:07:06.093Z,4.80
2023-03-15T20:09:38.884Z,7.25
2023-03-15T20:12:09.107Z,5.32
2023-03-15T20:14:35.605Z,5.57
2023-03-15T20:17:01.956Z,5.03
2023-03-15T20:19:28.486Z,6.60
2023-03-15T20:21:55.004Z,5.70
2023-03-15T20:24:21.255Z,6.68
2023-03-15T20:26:47.628Z,6.63
2023-03-15T20:29:13.884Z,6.93
2023-03-15T20:31:40.329Z,6.88
2023-03-15T20:34:06.790Z,5.43
2023-03-15T20:36:33.666Z,6.45
2023-03-15T20:39:00.116Z,5.55
2023-03-15T20:41:26.514Z,6.43
2023-03-15T20:43:52.883Z,6.03
2023-03-15T20:46:20.435Z,5.07
2023-03-15T20:48:46.846Z,7.10
2023-03-15T20:51:13.425Z,5.93
2023-03-15T20:53:39.865Z,7.50
2023-03-15T20:56:06.623Z,8.07
2023-03-15T20:58:33.193Z,7.07
2023-03-15T21:01:07.075Z,6.70
2023-03-15T21:03:34.890Z,6.25
2023-03-15T21:06:02.071Z,6.90
2023-03-15T21:08:28.585Z,4.55
2023-03-15T21:10:55.119Z,5.32
2023-03-15T21:13:21.818Z,7.57
2023-03-15T21:15:48.182Z,4.35
2023-03-15T21:18:16.862Z,6.63
2023-03-15T21:20:43.714Z,5.03
2023-03-15T21:23:10.941Z,5.32
2023-03-15T21:25:37.886Z,4.22
2023-03-15T21:28:04.635Z,6.57
2023-03-15T21:30:31.164Z,5.78
2023-03-15T21:32:57.832Z,5.47
2023-03-15T21:35:25.800Z,5.07
2023-03-15T21:37:52.353Z,4.65
2023-03-15T21:40:18.956Z,5.53
2023-03-15T21:42:47.969Z,5.30
2023-03-15T21:45:15.024Z,6.00
2023-03-15T21:47:41.817Z,5.15
2023-03-15T21:50:08.607Z,4.20
2023-03-15T21:52:34.932Z,5.47
2023-03-15T21:55:01.255Z,4.85
2023-03-15T21:57:27.733Z,5.70
2023-03-15T21:59:54.201Z,6.70
2023-03-15T22:02:20.832Z,5.13
2023-03-15T22:04:47.250Z,4.07
2023-03-15T22:07:13.586Z,3.78
2023-03-15T22:09:41.266Z,5.32
2023-03-15T22:12:08.165Z,4.00
2023-03-15T22:14:34.636Z,3.92
2023-03-15T22:17:04.520Z,4.78
2023-03-15T22:19:31.924Z,5.68
2023-03-15T22:21:58.307Z,5.10
2023-03-15T22:24:24.582Z,3.65
2023-03-15T22:26:53.046Z,4.88
2023-03-15T22:29:19.645Z,5.43
2023-03-15T22:31:45.917Z,3.83
2023-03-15T22:34:12.415Z,3.90
2023-03-15T22:36:38.772Z,4.30
2023-03-15T22:39:05.065Z,4.60
2023-03-15T22:41:31.405Z,5.55
2023-03-15T22:43:57.763Z,4.25
2023-03-15T22:46:24.137Z,5.50
2023-03-15T22:48:50.561Z,4.43
2023-03-15T22:51:17.091Z,4.07
2023-03-15T22:53:43.382Z,5.63
2023-03-15T22:56:09.985Z,3.92
2023-03-15T22:58:36.550Z,3.92
2023-03-15T23:01:03.047Z,5.35
2023-03-15T23:03:29.406Z,4.35
2023-03-15T23:05:56.053Z,3.30
2023-03-15T23:08:23.042Z,4.00
2023-03-15T23:10:49.850Z,5.28
2023-03-15T23:13:16.198Z,4.38
2023-03-15T23:15:43.396Z,3.63
2023-03-15T23:18:09.813Z,4.20
2023-03-15T23:20:37.461Z,4.25
2023-03-15T23:23:03.808Z,3.13
2023-03-15T23:25:30.135Z,4.38
2023-03-15T23:27:56.758Z,3.88
2023-03-15T23:30:23.308Z,6.00
2023-03-15T23:32:52.442Z,3.53
2023-03-15T23:35:18.800Z,4.00
2023-03-15T23:37:45.103Z,4.97
2023-03-15T23:40:12.778Z,5.38
2023-03-15T23:42:39.134Z,5.38
2023-03-15T23:45:05.921Z,3.85
2023-03-15T23:47:32.252Z,4.53
2023-03-15T23:49:58.760Z,5.00
2023-03-15T23:52:25.941Z,3.80
2023-03-15T23:54:53.841Z,3.90
2023-03-15T23:57:20.906Z,3.95
2023-03-15T23:59:47.264Z,3.58
